Terminal Aerodrome Forecast
Issued by NWS Amarillo, TX

Home | Current Version | Previous Version | Text Only | Print | Product List | Glossary On
Versions: 1 2 3 4 5 6 7 8 9 10 11 12 13
104
FTUS44 KAMA 270520
TAFAMA
TAF
KAMA 270520Z 2706/2806 16011KT P6SM SKC
     FM270800 21011KT P6SM SKC
     FM271100 26011KT P6SM SKC
     FM272000 28015G23KT P6SM FEW200
     FM280100 01019G28KT P6SM SCT060 BKN150=

USA.gov is the U.S. government's official web portal to all federal, state and local government web resources and services.